sensor_id;sensor_type;location;lat;lon;timestamp;temperature;humidity
15113;DHT22;7657;50.140;7.076;2023-07-31T00:01:56;17.20;99.90
15113;DHT22;7657;50.140;7.076;2023-07-31T00:04:23;17.20;99.90
15113;DHT22;7657;50.140;7.076;2023-07-31T00:06:51;17.20;99.90
15113;DHT22;7657;50.140;7.076;2023-07-31T00:09:18;17.20;99.90
15113;DHT22;7657;50.140;7.076;2023-07-31T00:11:45;17.20;99.90
15113;DHT22;7657;50.140;7.076;2023-07-31T00:14:11;17.20;99.90
15113;DHT22;7657;50.140;7.076;2023-07-31T00:16:38;17.20;99.90
15113;DHT22;7657;50.140;7.076;2023-07-31T00:19:05;17.20;99.90
15113;DHT22;7657;50.140;7.076;2023-07-31T00:21:32;17.20;99.90
15113;DHT22;7657;50.140;7.076;2023-07-31T00:24:00;17.20;99.90
15113;DHT22;7657;50.140;7.076;2023-07-31T00:26:27;17.30;99.90
15113;DHT22;7657;50.140;7.076;2023-07-31T00:28:54;17.30;99.90
15113;DHT22;7657;50.140;7.076;2023-07-31T00:31:21;17.30;99.90
15113;DHT22;7657;50.140;7.076;2023-07-31T00:33:48;17.40;99.90
15113;DHT22;7657;50.140;7.076;2023-07-31T00:36:15;17.30;99.90
15113;DHT22;7657;50.140;7.076;2023-07-31T00:38:43;17.40;99.90
15113;DHT22;7657;50.140;7.076;2023-07-31T00:41:11;17.30;99.90
15113;DHT22;7657;50.140;7.076;2023-07-31T00:43:38;17.20;99.90
15113;DHT22;7657;50.140;7.076;2023-07-31T00:46:05;17.20;99.90
15113;DHT22;7657;50.140;7.076;2023-07-31T00:48:32;17.20;99.90
15113;DHT22;7657;50.140;7.076;2023-07-31T00:51:00;17.20;99.90
15113;DHT22;7657;50.140;7.076;2023-07-31T00:53:28;17.30;99.90
15113;DHT22;7657;50.140;7.076;2023-07-31T00:55:55;17.30;99.90
15113;DHT22;7657;50.140;7.076;2023-07-31T00:58:23;17.30;99.90
15113;DHT22;7657;50.140;7.076;2023-07-31T01:00:50;17.30;99.90
15113;DHT22;7657;50.140;7.076;2023-07-31T01:03:17;17.30;99.90
15113;DHT22;7657;50.140;7.076;2023-07-31T01:05:51;17.30;99.90
15113;DHT22;7657;50.140;7.076;2023-07-31T01:08:26;17.30;99.90
15113;DHT22;7657;50.140;7.076;2023-07-31T01:11:02;17.30;99.90
15113;DHT22;7657;50.140;7.076;2023-07-31T01:13:33;17.30;99.90
15113;DHT22;7657;50.140;7.076;2023-07-31T01:16:00;17.30;99.90
15113;DHT22;7657;50.140;7.076;2023-07-31T01:18:27;17.40;99.90
15113;DHT22;7657;50.140;7.076;2023-07-31T01:21:03;17.30;99.90
15113;DHT22;7657;50.140;7.076;2023-07-31T01:26:28;17.30;99.90
15113;DHT22;7657;50.140;7.076;2023-07-31T01:29:00;17.20;99.90
15113;DHT22;7657;50.140;7.076;2023-07-31T01:31:29;17.20;99.90
15113;DHT22;7657;50.140;7.076;2023-07-31T01:34:00;17.10;99.90
15113;DHT22;7657;50.140;7.076;2023-07-31T01:36:28;17.20;99.90
15113;DHT22;7657;50.140;7.076;2023-07-31T01:38:58;17.20;99.90
15113;DHT22;7657;50.140;7.076;2023-07-31T01:41:27;17.10;99.90
15113;DHT22;7657;50.140;7.076;2023-07-31T01:43:54;17.10;99.90
15113;DHT22;7657;50.140;7.076;2023-07-31T01:46:21;17.10;99.90
15113;DHT22;7657;50.140;7.076;2023-07-31T01:48:48;17.00;99.90
15113;DHT22;7657;50.140;7.076;2023-07-31T01:51:15;17.00;99.90
15113;DHT22;7657;50.140;7.076;2023-07-31T01:53:42;16.90;99.90
15113;DHT22;7657;50.140;7.076;2023-07-31T01:56:09;16.90;99.90
15113;DHT22;7657;50.140;7.076;2023-07-31T01:58:37;16.90;99.90
15113;DHT22;7657;50.140;7.076;2023-07-31T02:01:04;16.90;99.90
15113;DHT22;7657;50.140;7.076;2023-07-31T02:03:31;16.80;99.90
15113;DHT22;7657;50.140;7.076;2023-07-31T02:05:58;16.80;99.90
15113;DHT22;7657;50.140;7.076;2023-07-31T02:08:24;16.90;99.90
15113;DHT22;7657;50.140;7.076;2023-07-31T02:10:51;16.80;99.90
15113;DHT22;7657;50.140;7.076;2023-07-31T02:13:18;16.70;99.90
15113;DHT22;7657;50.140;7.076;2023-07-31T02:15:48;16.70;99.90
15113;DHT22;7657;50.140;7.076;2023-07-31T02:18:16;16.70;99.90
15113;DHT22;7657;50.140;7.076;2023-07-31T02:20:42;16.70;99.90
15113;DHT22;7657;50.140;7.076;2023-07-31T02:23:11;16.70;99.90
15113;DHT22;7657;50.140;7.076;2023-07-31T02:25:38;16.70;99.90
15113;DHT22;7657;50.140;7.076;2023-07-31T02:28:05;16.70;99.90
15113;DHT22;7657;50.140;7.076;2023-07-31T02:30:32;16.70;99.90
15113;DHT22;7657;50.140;7.076;2023-07-31T02:33:00;16.70;99.90
15113;DHT22;7657;50.140;7.076;2023-07-31T02:35:27;16.60;99.90
15113;DHT22;7657;50.140;7.076;2023-07-31T02:37:54;16.60;99.90
15113;DHT22;7657;50.140;7.076;2023-07-31T02:40:21;16.60;99.90
15113;DHT22;7657;50.140;7.076;2023-07-31T02:42:48;16.60;99.90
15113;DHT22;7657;50.140;7.076;2023-07-31T02:45:14;16.60;99.90
15113;DHT22;7657;50.140;7.076;2023-07-31T02:47:41;16.60;99.90
15113;DHT22;7657;50.140;7.076;2023-07-31T02:50:10;16.50;99.90
15113;DHT22;7657;50.140;7.076;2023-07-31T02:52:37;16.60;99.90
15113;DHT22;7657;50.140;7.076;2023-07-31T02:55:05;16.60;99.90
15113;DHT22;7657;50.140;7.076;2023-07-31T02:57:32;16.70;99.90
15113;DHT22;7657;50.140;7.076;2023-07-31T02:59:59;16.70;99.90
15113;DHT22;7657;50.140;7.076;2023-07-31T03:02:25;16.60;99.90
15113;DHT22;7657;50.140;7.076;2023-07-31T03:04:52;16.70;99.90
15113;DHT22;7657;50.140;7.076;2023-07-31T03:07:20;16.70;99.90
15113;DHT22;7657;50.140;7.076;2023-07-31T03:09:47;16.60;99.90
15113;DHT22;7657;50.140;7.076;2023-07-31T03:12:14;16.60;99.90
15113;DHT22;7657;50.140;7.076;2023-07-31T03:14:41;16.60;99.90
15113;DHT22;7657;50.140;7.076;2023-07-31T03:17:08;16.50;99.90
15113;DHT22;7657;50.140;7.076;2023-07-31T03:19:35;16.50;99.90
15113;DHT22;7657;50.140;7.076;2023-07-31T03:22:02;16.40;99.90
15113;DHT22;7657;50.140;7.076;2023-07-31T03:24:30;16.40;99.90
15113;DHT22;7657;50.140;7.076;2023-07-31T03:26:57;16.40;99.90
15113;DHT22;7657;50.140;7.076;2023-07-31T03:29:24;16.30;99.90
15113;DHT22;7657;50.140;7.076;2023-07-31T03:31:51;16.30;99.90
15113;DHT22;7657;50.140;7.076;2023-07-31T03:34:18;16.30;99.90
15113;DHT22;7657;50.140;7.076;2023-07-31T03:36:44;16.30;99.90
15113;DHT22;7657;50.140;7.076;2023-07-31T03:39:11;16.30;99.90
15113;DHT22;7657;50.140;7.076;2023-07-31T03:41:40;16.40;99.90
15113;DHT22;7657;50.140;7.076;2023-07-31T03:44:06;16.50;99.90
15113;DHT22;7657;50.140;7.076;2023-07-31T03:46:33;16.50;99.90
15113;DHT22;7657;50.140;7.076;2023-07-31T03:49:01;16.60;99.90
15113;DHT22;7657;50.140;7.076;2023-07-31T03:51:28;16.70;99.90
15113;DHT22;7657;50.140;7.076;2023-07-31T03:53:55;16.60;99.90
15113;DHT22;7657;50.140;7.076;2023-07-31T03:56:22;16.80;99.90
15113;DHT22;7657;50.140;7.076;2023-07-31T03:58:50;16.90;99.90
15113;DHT22;7657;50.140;7.076;2023-07-31T04:01:19;16.80;99.90
15113;DHT22;7657;50.140;7.076;2023-07-31T04:03:46;16.90;99.90
15113;DHT22;7657;50.140;7.076;2023-07-31T04:06:13;17.00;99.90
15113;DHT22;7657;50.140;7.076;2023-07-31T04:08:43;16.90;99.90
15113;DHT22;7657;50.140;7.076;2023-07-31T04:11:10;16.80;99.90
15113;DHT22;7657;50.140;7.076;2023-07-31T04:13:37;16.90;99.90
15113;DHT22;7657;50.140;7.076;2023-07-31T04:16:06;17.00;99.90
15113;DHT22;7657;50.140;7.076;2023-07-31T04:18:33;16.90;99.90
15113;DHT22;7657;50.140;7.076;2023-07-31T04:20:59;16.90;99.90
15113;DHT22;7657;50.140;7.076;2023-07-31T04:23:28;17.00;99.90
15113;DHT22;7657;50.140;7.076;2023-07-31T04:25:55;16.90;99.90
15113;DHT22;7657;50.140;7.076;2023-07-31T04:28:22;16.90;99.90
15113;DHT22;7657;50.140;7.076;2023-07-31T04:30:48;16.90;99.90
15113;DHT22;7657;50.140;7.076;2023-07-31T04:33:17;16.90;99.90
15113;DHT22;7657;50.140;7.076;2023-07-31T04:35:49;16.90;99.90
15113;DHT22;7657;50.140;7.076;2023-07-31T04:38:17;16.90;99.90
15113;DHT22;7657;50.140;7.076;2023-07-31T04:40:44;17.00;99.90
15113;DHT22;7657;50.140;7.076;2023-07-31T04:43:11;16.90;99.90
15113;DHT22;7657;50.140;7.076;2023-07-31T04:45:38;16.90;99.90
15113;DHT22;7657;50.140;7.076;2023-07-31T04:48:05;16.90;99.90
15113;DHT22;7657;50.140;7.076;2023-07-31T04:50:33;17.00;99.90
15113;DHT22;7657;50.140;7.076;2023-07-31T04:53:00;16.90;99.90
15113;DHT22;7657;50.140;7.076;2023-07-31T04:55:27;16.90;99.90
15113;DHT22;7657;50.140;7.076;2023-07-31T04:57:54;16.80;99.90
15113;DHT22;7657;50.140;7.076;2023-07-31T05:00:21;16.90;99.90
15113;DHT22;7657;50.140;7.076;2023-07-31T05:02:48;16.90;99.90
15113;DHT22;7657;50.140;7.076;2023-07-31T05:05:14;16.90;99.90
15113;DHT22;7657;50.140;7.076;2023-07-31T05:07:43;17.00;99.90
15113;DHT22;7657;50.140;7.076;2023-07-31T05:10:10;16.90;99.90
15113;DHT22;7657;50.140;7.076;2023-07-31T05:12:37;17.00;99.90
15113;DHT22;7657;50.140;7.076;2023-07-31T05:15:04;17.10;99.90
15113;DHT22;7657;50.140;7.076;2023-07-31T05:17:31;17.10;99.90
15113;DHT22;7657;50.140;7.076;2023-07-31T05:19:58;17.10;99.90
15113;DHT22;7657;50.140;7.076;2023-07-31T05:22:25;17.00;99.90
15113;DHT22;7657;50.140;7.076;2023-07-31T05:24:53;17.10;99.90
15113;DHT22;7657;50.140;7.076;2023-07-31T05:27:20;17.10;99.90
15113;DHT22;7657;50.140;7.076;2023-07-31T05:29:47;17.10;99.90
15113;DHT22;7657;50.140;7.076;2023-07-31T05:32:14;17.20;99.90
15113;DHT22;7657;50.140;7.076;2023-07-31T05:34:41;17.20;99.90
15113;DHT22;7657;50.140;7.076;2023-07-31T05:37:09;17.10;99.90
15113;DHT22;7657;50.140;7.076;2023-07-31T05:39:36;17.10;99.90
15113;DHT22;7657;50.140;7.076;2023-07-31T05:42:05;17.10;99.90
15113;DHT22;7657;50.140;7.076;2023-07-31T05:44:32;17.10;99.90
15113;DHT22;7657;50.140;7.076;2023-07-31T05:46:59;17.00;99.90
15113;DHT22;7657;50.140;7.076;2023-07-31T05:49:26;17.00;99.90
15113;DHT22;7657;50.140;7.076;2023-07-31T05:51:53;17.10;99.90
15113;DHT22;7657;50.140;7.076;2023-07-31T05:54:19;17.00;99.90
15113;DHT22;7657;50.140;7.076;2023-07-31T05:56:46;17.00;99.90
15113;DHT22;7657;50.140;7.076;2023-07-31T05:59:16;17.10;99.90
15113;DHT22;7657;50.140;7.076;2023-07-31T06:01:43;17.10;99.90
15113;DHT22;7657;50.140;7.076;2023-07-31T06:04:10;17.20;99.90
15113;DHT22;7657;50.140;7.076;2023-07-31T06:06:37;17.10;99.90
15113;DHT22;7657;50.140;7.076;2023-07-31T06:09:03;17.10;99.90
15113;DHT22;7657;50.140;7.076;2023-07-31T06:11:30;17.20;99.90
15113;DHT22;7657;50.140;7.076;2023-07-31T06:13:57;17.10;99.90
15113;DHT22;7657;50.140;7.076;2023-07-31T06:16:26;17.00;99.90
15113;DHT22;7657;50.140;7.076;2023-07-31T06:18:53;17.00;99.90
15113;DHT22;7657;50.140;7.076;2023-07-31T06:21:20;17.10;99.90
15113;DHT22;7657;50.140;7.076;2023-07-31T06:23:46;17.10;99.90
15113;DHT22;7657;50.140;7.076;2023-07-31T06:26:13;17.20;99.90
15113;DHT22;7657;50.140;7.076;2023-07-31T06:28:40;17.20;99.90
15113;DHT22;7657;50.140;7.076;2023-07-31T06:31:07;17.20;99.90
15113;DHT22;7657;50.140;7.076;2023-07-31T06:33:35;17.30;99.90
15113;DHT22;7657;50.140;7.076;2023-07-31T06:36:02;17.30;99.90
15113;DHT22;7657;50.140;7.076;2023-07-31T06:38:29;17.30;99.90
15113;DHT22;7657;50.140;7.076;2023-07-31T06:40:56;17.30;99.90
15113;DHT22;7657;50.140;7.076;2023-07-31T06:43:23;17.30;99.90
15113;DHT22;7657;50.140;7.076;2023-07-31T06:45:50;17.30;99.90
15113;DHT22;7657;50.140;7.076;2023-07-31T06:48:17;17.40;99.90
15113;DHT22;7657;50.140;7.076;2023-07-31T06:50:45;17.40;99.90
15113;DHT22;7657;50.140;7.076;2023-07-31T06:53:12;17.40;99.90
15113;DHT22;7657;50.140;7.076;2023-07-31T06:55:39;17.40;99.90
15113;DHT22;7657;50.140;7.076;2023-07-31T06:58:05;17.30;99.90
15113;DHT22;7657;50.140;7.076;2023-07-31T07:00:32;17.20;99.90
15113;DHT22;7657;50.140;7.076;2023-07-31T07:02:59;17.40;99.90
15113;DHT22;7657;50.140;7.076;2023-07-31T07:05:26;17.30;99.90
15113;DHT22;7657;50.140;7.076;2023-07-31T07:07:54;17.40;99.90
15113;DHT22;7657;50.140;7.076;2023-07-31T07:10:21;17.50;99.90
15113;DHT22;7657;50.140;7.076;2023-07-31T07:12:48;17.50;99.90
15113;DHT22;7657;50.140;7.076;2023-07-31T07:15:15;17.60;99.90
15113;DHT22;7657;50.140;7.076;2023-07-31T07:17:42;17.60;99.90
15113;DHT22;7657;50.140;7.076;2023-07-31T07:20:09;17.50;99.90
15113;DHT22;7657;50.140;7.076;2023-07-31T07:22:36;17.70;99.90
15113;DHT22;7657;50.140;7.076;2023-07-31T07:25:05;17.70;99.90
15113;DHT22;7657;50.140;7.076;2023-07-31T07:27:32;17.70;99.90
15113;DHT22;7657;50.140;7.076;2023-07-31T07:29:59;17.70;99.90
15113;DHT22;7657;50.140;7.076;2023-07-31T07:32:26;17.80;99.90
15113;DHT22;7657;50.140;7.076;2023-07-31T07:34:53;17.60;99.90
15113;DHT22;7657;50.140;7.076;2023-07-31T07:37:21;17.50;99.90
15113;DHT22;7657;50.140;7.076;2023-07-31T07:39:48;17.60;99.90
15113;DHT22;7657;50.140;7.076;2023-07-31T07:42:17;17.60;99.90
15113;DHT22;7657;50.140;7.076;2023-07-31T07:44:44;17.60;99.90
15113;DHT22;7657;50.140;7.076;2023-07-31T07:47:11;17.60;99.90
15113;DHT22;7657;50.140;7.076;2023-07-31T07:49:38;17.60;99.90
15113;DHT22;7657;50.140;7.076;2023-07-31T07:52:05;17.70;99.90
15113;DHT22;7657;50.140;7.076;2023-07-31T07:54:32;17.60;99.90
15113;DHT22;7657;50.140;7.076;2023-07-31T07:56:59;17.60;99.90
15113;DHT22;7657;50.140;7.076;2023-07-31T07:59:27;17.60;99.90
15113;DHT22;7657;50.140;7.076;2023-07-31T08:01:54;17.60;99.90
15113;DHT22;7657;50.140;7.076;2023-07-31T08:04:21;17.50;99.90
15113;DHT22;7657;50.140;7.076;2023-07-31T08:06:48;17.50;99.90
15113;DHT22;7657;50.140;7.076;2023-07-31T08:09:15;17.60;99.90
15113;DHT22;7657;50.140;7.076;2023-07-31T08:11:41;17.60;99.90
15113;DHT22;7657;50.140;7.076;2023-07-31T08:14:08;17.50;99.90
15113;DHT22;7657;50.140;7.076;2023-07-31T08:16:36;17.40;99.90
15113;DHT22;7657;50.140;7.076;2023-07-31T08:19:03;17.50;99.90
15113;DHT22;7657;50.140;7.076;2023-07-31T08:21:31;17.60;99.90
15113;DHT22;7657;50.140;7.076;2023-07-31T08:23:58;17.70;99.90
15113;DHT22;7657;50.140;7.076;2023-07-31T08:26:25;17.70;99.90
15113;DHT22;7657;50.140;7.076;2023-07-31T08:28:52;17.50;99.90
15113;DHT22;7657;50.140;7.076;2023-07-31T08:31:19;17.60;99.90
15113;DHT22;7657;50.140;7.076;2023-07-31T08:33:47;17.70;99.90
15113;DHT22;7657;50.140;7.076;2023-07-31T08:36:14;17.70;99.90
15113;DHT22;7657;50.140;7.076;2023-07-31T08:38:41;17.80;99.90
15113;DHT22;7657;50.140;7.076;2023-07-31T08:41:08;17.90;99.90
15113;DHT22;7657;50.140;7.076;2023-07-31T08:43:35;17.90;99.90
15113;DHT22;7657;50.140;7.076;2023-07-31T08:46:02;18.00;99.90
15113;DHT22;7657;50.140;7.076;2023-07-31T08:48:31;18.00;99.90
15113;DHT22;7657;50.140;7.076;2023-07-31T08:50:59;18.10;99.90
15113;DHT22;7657;50.140;7.076;2023-07-31T08:53:26;18.10;99.90
15113;DHT22;7657;50.140;7.076;2023-07-31T08:55:53;18.20;99.90
15113;DHT22;7657;50.140;7.076;2023-07-31T08:58:21;18.30;99.90
15113;DHT22;7657;50.140;7.076;2023-07-31T09:00:51;18.30;99.90
15113;DHT22;7657;50.140;7.076;2023-07-31T09:03:19;18.40;99.90
15113;DHT22;7657;50.140;7.076;2023-07-31T09:05:48;18.50;99.90
15113;DHT22;7657;50.140;7.076;2023-07-31T09:08:19;18.50;99.90
15113;DHT22;7657;50.140;7.076;2023-07-31T09:10:47;18.50;99.90
15113;DHT22;7657;50.140;7.076;2023-07-31T09:13:16;18.60;99.90
15113;DHT22;7657;50.140;7.076;2023-07-31T09:15:44;18.70;99.90
15113;DHT22;7657;50.140;7.076;2023-07-31T09:18:12;18.70;99.90
15113;DHT22;7657;50.140;7.076;2023-07-31T09:20:39;18.70;99.90
15113;DHT22;7657;50.140;7.076;2023-07-31T09:23:08;18.70;99.90
15113;DHT22;7657;50.140;7.076;2023-07-31T09:25:37;18.80;99.90
15113;DHT22;7657;50.140;7.076;2023-07-31T09:28:05;18.90;99.90
15113;DHT22;7657;50.140;7.076;2023-07-31T09:30:45;18.90;99.90
15113;DHT22;7657;50.140;7.076;2023-07-31T09:33:12;19.00;99.90
15113;DHT22;7657;50.140;7.076;2023-07-31T09:35:39;19.10;99.90
15113;DHT22;7657;50.140;7.076;2023-07-31T09:38:09;19.10;99.90
15113;DHT22;7657;50.140;7.076;2023-07-31T09:40:39;19.00;99.90
15113;DHT22;7657;50.140;7.076;2023-07-31T09:43:08;19.10;99.90
15113;DHT22;7657;50.140;7.076;2023-07-31T09:45:37;19.20;99.90
15113;DHT22;7657;50.140;7.076;2023-07-31T09:48:07;19.40;99.90
15113;DHT22;7657;50.140;7.076;2023-07-31T09:50:37;19.50;99.90
15113;DHT22;7657;50.140;7.076;2023-07-31T09:53:05;19.40;99.90
15113;DHT22;7657;50.140;7.076;2023-07-31T09:55:32;19.40;99.90
15113;DHT22;7657;50.140;7.076;2023-07-31T09:58:03;19.50;99.90
15113;DHT22;7657;50.140;7.076;2023-07-31T10:00:31;19.50;99.90
15113;DHT22;7657;50.140;7.076;2023-07-31T10:02:59;19.50;99.90
15113;DHT22;7657;50.140;7.076;2023-07-31T10:05:31;19.60;99.90
15113;DHT22;7657;50.140;7.076;2023-07-31T10:07:59;19.60;99.90
15113;DHT22;7657;50.140;7.076;2023-07-31T10:10:27;19.80;99.90
15113;DHT22;7657;50.140;7.076;2023-07-31T10:12:56;19.90;99.90
15113;DHT22;7657;50.140;7.076;2023-07-31T10:15:25;20.00;99.90
15113;DHT22;7657;50.140;7.076;2023-07-31T10:17:54;20.00;99.90
15113;DHT22;7657;50.140;7.076;2023-07-31T10:20:21;19.90;99.90
15113;DHT22;7657;50.140;7.076;2023-07-31T10:22:49;19.70;99.90
15113;DHT22;7657;50.140;7.076;2023-07-31T10:25:18;19.60;99.90
15113;DHT22;7657;50.140;7.076;2023-07-31T10:27:47;19.60;99.90
15113;DHT22;7657;50.140;7.076;2023-07-31T10:30:17;19.50;99.90
15113;DHT22;7657;50.140;7.076;2023-07-31T10:32:47;19.60;99.90
15113;DHT22;7657;50.140;7.076;2023-07-31T10:35:16;19.60;99.90
15113;DHT22;7657;50.140;7.076;2023-07-31T10:37:44;19.70;99.90
15113;DHT22;7657;50.140;7.076;2023-07-31T10:40:12;19.60;99.90
15113;DHT22;7657;50.140;7.076;2023-07-31T10:42:45;19.70;99.90
15113;DHT22;7657;50.140;7.076;2023-07-31T10:45:13;19.70;99.90
15113;DHT22;7657;50.140;7.076;2023-07-31T10:47:43;19.80;99.90
15113;DHT22;7657;50.140;7.076;2023-07-31T10:50:17;19.70;99.90
15113;DHT22;7657;50.140;7.076;2023-07-31T10:52:48;19.70;99.90
15113;DHT22;7657;50.140;7.076;2023-07-31T10:55:30;19.70;99.90
15113;DHT22;7657;50.140;7.076;2023-07-31T10:57:58;19.70;99.90
15113;DHT22;7657;50.140;7.076;2023-07-31T11:00:31;19.50;99.90
15113;DHT22;7657;50.140;7.076;2023-07-31T11:03:01;19.30;99.90
15113;DHT22;7657;50.140;7.076;2023-07-31T11:05:52;19.10;99.90
15113;DHT22;7657;50.140;7.076;2023-07-31T11:08:21;19.00;99.90
15113;DHT22;7657;50.140;7.076;2023-07-31T11:10:50;18.90;99.90
15113;DHT22;7657;50.140;7.076;2023-07-31T11:13:17;18.90;99.90
15113;DHT22;7657;50.140;7.076;2023-07-31T11:15:45;19.00;99.90
15113;DHT22;7657;50.140;7.076;2023-07-31T11:18:12;19.10;99.90
15113;DHT22;7657;50.140;7.076;2023-07-31T11:20:39;19.10;99.90
15113;DHT22;7657;50.140;7.076;2023-07-31T11:23:08;19.20;99.90
15113;DHT22;7657;50.140;7.076;2023-07-31T11:25:37;19.20;99.90
15113;DHT22;7657;50.140;7.076;2023-07-31T11:28:06;19.30;99.90
15113;DHT22;7657;50.140;7.076;2023-07-31T11:30:34;19.20;99.90
15113;DHT22;7657;50.140;7.076;2023-07-31T11:33:02;19.40;99.90
15113;DHT22;7657;50.140;7.076;2023-07-31T11:35:30;19.40;99.90
15113;DHT22;7657;50.140;7.076;2023-07-31T11:37:57;19.40;99.90
15113;DHT22;7657;50.140;7.076;2023-07-31T11:40:26;19.30;99.90
15113;DHT22;7657;50.140;7.076;2023-07-31T11:42:56;19.30;99.90
15113;DHT22;7657;50.140;7.076;2023-07-31T11:45:25;19.40;99.90
15113;DHT22;7657;50.140;7.076;2023-07-31T11:47:52;19.40;99.90
15113;DHT22;7657;50.140;7.076;2023-07-31T11:50:20;19.50;99.90
15113;DHT22;7657;50.140;7.076;2023-07-31T11:52:48;19.50;99.90
15113;DHT22;7657;50.140;7.076;2023-07-31T11:55:17;19.60;99.90
15113;DHT22;7657;50.140;7.076;2023-07-31T11:57:46;19.70;99.90
15113;DHT22;7657;50.140;7.076;2023-07-31T12:00:15;19.80;99.90
15113;DHT22;7657;50.140;7.076;2023-07-31T12:02:42;19.90;99.90
15113;DHT22;7657;50.140;7.076;2023-07-31T12:05:11;19.80;99.90
15113;DHT22;7657;50.140;7.076;2023-07-31T12:07:46;19.80;99.90
15113;DHT22;7657;50.140;7.076;2023-07-31T12:10:26;19.70;99.90
15113;DHT22;7657;50.140;7.076;2023-07-31T12:12:59;19.50;99.90
15113;DHT22;7657;50.140;7.076;2023-07-31T12:15:32;19.60;99.90
15113;DHT22;7657;50.140;7.076;2023-07-31T12:17:59;19.70;99.90
15113;DHT22;7657;50.140;7.076;2023-07-31T12:20:26;19.90;99.90
15113;DHT22;7657;50.140;7.076;2023-07-31T12:22:56;19.80;99.90
15113;DHT22;7657;50.140;7.076;2023-07-31T12:25:28;19.80;99.90
15113;DHT22;7657;50.140;7.076;2023-07-31T12:27:55;20.00;99.90
15113;DHT22;7657;50.140;7.076;2023-07-31T12:30:29;19.80;99.90
15113;DHT22;7657;50.140;7.076;2023-07-31T12:33:02;19.50;99.90
15113;DHT22;7657;50.140;7.076;2023-07-31T12:35:35;19.20;99.90
15113;DHT22;7657;50.140;7.076;2023-07-31T12:38:02;19.00;99.90
15113;DHT22;7657;50.140;7.076;2023-07-31T12:40:29;19.00;99.90
15113;DHT22;7657;50.140;7.076;2023-07-31T12:42:55;18.90;99.90
15113;DHT22;7657;50.140;7.076;2023-07-31T12:45:22;19.00;99.90
15113;DHT22;7657;50.140;7.076;2023-07-31T12:47:51;18.90;99.90
15113;DHT22;7657;50.140;7.076;2023-07-31T12:50:18;19.00;99.90
15113;DHT22;7657;50.140;7.076;2023-07-31T12:52:45;19.10;99.90
15113;DHT22;7657;50.140;7.076;2023-07-31T12:55:12;19.20;99.90
15113;DHT22;7657;50.140;7.076;2023-07-31T12:57:40;19.10;99.90
15113;DHT22;7657;50.140;7.076;2023-07-31T13:00:09;19.10;99.90
15113;DHT22;7657;50.140;7.076;2023-07-31T13:02:36;19.00;99.90
15113;DHT22;7657;50.140;7.076;2023-07-31T13:05:05;18.80;99.90
15113;DHT22;7657;50.140;7.076;2023-07-31T13:07:32;18.90;99.90
15113;DHT22;7657;50.140;7.076;2023-07-31T13:09:59;18.80;99.90
15113;DHT22;7657;50.140;7.076;2023-07-31T13:12:26;18.70;99.90
15113;DHT22;7657;50.140;7.076;2023-07-31T13:14:52;18.80;99.90
15113;DHT22;7657;50.140;7.076;2023-07-31T13:17:19;18.70;99.90
15113;DHT22;7657;50.140;7.076;2023-07-31T13:19:46;18.80;99.90
15113;DHT22;7657;50.140;7.076;2023-07-31T13:22:14;18.80;99.90
15113;DHT22;7657;50.140;7.076;2023-07-31T13:24:41;18.70;99.90
15113;DHT22;7657;50.140;7.076;2023-07-31T13:27:08;18.60;99.90
15113;DHT22;7657;50.140;7.076;2023-07-31T13:29:35;18.60;99.90
15113;DHT22;7657;50.140;7.076;2023-07-31T13:32:02;18.50;99.90
15113;DHT22;7657;50.140;7.076;2023-07-31T13:34:29;18.50;99.90
15113;DHT22;7657;50.140;7.076;2023-07-31T13:36:56;18.30;99.90
15113;DHT22;7657;50.140;7.076;2023-07-31T13:39:24;18.30;99.90
15113;DHT22;7657;50.140;7.076;2023-07-31T13:41:51;18.40;99.90
15113;DHT22;7657;50.140;7.076;2023-07-31T13:44:18;18.50;99.90
15113;DHT22;7657;50.140;7.076;2023-07-31T13:46:45;18.50;99.90
15113;DHT22;7657;50.140;7.076;2023-07-31T13:49:12;18.50;99.90
15113;DHT22;7657;50.140;7.076;2023-07-31T13:51:39;18.60;99.90
15113;DHT22;7657;50.140;7.076;2023-07-31T13:54:05;18.60;99.90
15113;DHT22;7657;50.140;7.076;2023-07-31T13:56:34;18.70;99.90
15113;DHT22;7657;50.140;7.076;2023-07-31T13:59:01;18.70;99.90
15113;DHT22;7657;50.140;7.076;2023-07-31T14:01:28;18.70;99.90
15113;DHT22;7657;50.140;7.076;2023-07-31T14:03:55;18.70;99.90
15113;DHT22;7657;50.140;7.076;2023-07-31T14:06:22;18.50;99.90
15113;DHT22;7657;50.140;7.076;2023-07-31T14:08:49;18.50;99.90
15113;DHT22;7657;50.140;7.076;2023-07-31T14:11:15;18.40;99.90
15113;DHT22;7657;50.140;7.076;2023-07-31T14:13:44;18.40;99.90
15113;DHT22;7657;50.140;7.076;2023-07-31T14:16:11;18.60;99.90
15113;DHT22;7657;50.140;7.076;2023-07-31T14:18:37;18.60;99.90
15113;DHT22;7657;50.140;7.076;2023-07-31T14:21:04;18.50;99.90
15113;DHT22;7657;50.140;7.076;2023-07-31T14:23:31;18.30;99.90
15113;DHT22;7657;50.140;7.076;2023-07-31T14:25:58;18.20;99.90
15113;DHT22;7657;50.140;7.076;2023-07-31T14:28:25;18.20;99.90
15113;DHT22;7657;50.140;7.076;2023-07-31T14:30:53;18.30;99.90
15113;DHT22;7657;50.140;7.076;2023-07-31T14:33:20;18.40;99.90
15113;DHT22;7657;50.140;7.076;2023-07-31T14:35:47;18.50;99.90
15113;DHT22;7657;50.140;7.076;2023-07-31T14:38:14;18.20;99.90
15113;DHT22;7657;50.140;7.076;2023-07-31T14:40:41;18.30;99.90
15113;DHT22;7657;50.140;7.076;2023-07-31T14:43:08;18.10;99.90
15113;DHT22;7657;50.140;7.076;2023-07-31T14:45:35;17.90;99.90
15113;DHT22;7657;50.140;7.076;2023-07-31T14:48:04;17.90;99.90
15113;DHT22;7657;50.140;7.076;2023-07-31T14:50:31;17.70;99.90
15113;DHT22;7657;50.140;7.076;2023-07-31T14:52:58;17.70;99.90
15113;DHT22;7657;50.140;7.076;2023-07-31T14:55:25;17.60;99.90
15113;DHT22;7657;50.140;7.076;2023-07-31T14:57:52;17.70;99.90
15113;DHT22;7657;50.140;7.076;2023-07-31T15:00:19;17.60;99.90
15113;DHT22;7657;50.140;7.076;2023-07-31T15:02:45;17.70;99.90
15113;DHT22;7657;50.140;7.076;2023-07-31T15:05:14;17.70;99.90
15113;DHT22;7657;50.140;7.076;2023-07-31T15:07:41;17.90;99.90
15113;DHT22;7657;50.140;7.076;2023-07-31T15:10:08;17.80;99.90
15113;DHT22;7657;50.140;7.076;2023-07-31T15:12:35;17.80;99.90
15113;DHT22;7657;50.140;7.076;2023-07-31T15:15:04;17.80;99.90
15113;DHT22;7657;50.140;7.076;2023-07-31T15:17:31;17.80;99.90
15113;DHT22;7657;50.140;7.076;2023-07-31T15:19:57;17.90;99.90
15113;DHT22;7657;50.140;7.076;2023-07-31T15:22:26;17.90;99.90
15113;DHT22;7657;50.140;7.076;2023-07-31T15:24:53;18.00;99.90
15113;DHT22;7657;50.140;7.076;2023-07-31T15:27:20;18.00;99.90
15113;DHT22;7657;50.140;7.076;2023-07-31T15:29:46;18.00;99.90
15113;DHT22;7657;50.140;7.076;2023-07-31T15:32:13;18.00;99.90
15113;DHT22;7657;50.140;7.076;2023-07-31T15:34:40;18.10;99.90
15113;DHT22;7657;50.140;7.076;2023-07-31T15:37:07;18.10;99.90
15113;DHT22;7657;50.140;7.076;2023-07-31T15:39:35;18.20;99.90
15113;DHT22;7657;50.140;7.076;2023-07-31T15:42:02;18.30;99.90
15113;DHT22;7657;50.140;7.076;2023-07-31T15:44:29;18.20;99.90
15113;DHT22;7657;50.140;7.076;2023-07-31T15:46:56;18.30;99.90
15113;DHT22;7657;50.140;7.076;2023-07-31T15:49:23;18.30;99.90
15113;DHT22;7657;50.140;7.076;2023-07-31T15:51:50;18.30;99.90